createdAt,value
2023-09-04T00:00:54.591Z,80.66
2023-09-04T00:03:22.652Z,80.65
2023-09-04T00:05:50.841Z,81.06
2023-09-04T00:08:18.668Z,80.32
2023-09-04T00:10:46.540Z,80.09
2023-09-04T00:13:16.044Z,80.19
2023-09-04T00:15:43.821Z,80.07
2023-09-04T00:18:11.648Z,80.95
2023-09-04T00:20:39.409Z,80.92
2023-09-04T00:23:07.477Z,81.69
2023-09-04T00:25:35.945Z,81.40
2023-09-04T00:28:04.211Z,80.92
2023-09-04T00:30:33.595Z,81.40
2023-09-04T00:33:01.360Z,81.76
2023-09-04T00:35:29.131Z,81.20
2023-09-04T00:37:56.862Z,81.09
2023-09-04T00:40:24.592Z,80.96
2023-09-04T00:42:52.467Z,81.28
2023-09-04T00:45:20.269Z,80.70
2023-09-04T00:47:49.799Z,80.24
2023-09-04T00:50:22.248Z,79.62
2023-09-04T00:52:51.309Z,79.52
2023-09-04T00:55:19.689Z,79.31
2023-09-04T00:57:47.468Z,79.26
2023-09-04T01:00:16.233Z,76.75
2023-09-04T01:02:44.225Z,78.34
2023-09-04T01:05:13.523Z,79.32
2023-09-04T01:07:42.271Z,79.30
2023-09-04T01:10:11.848Z,77.02
2023-09-04T01:12:48.245Z,79.02
2023-09-04T01:15:16.496Z,78.74
2023-09-04T01:17:45.629Z,78.29
2023-09-04T01:20:28.957Z,77.65
2023-09-04T01:22:57.619Z,78.03
2023-09-04T01:25:32.354Z,78.78
2023-09-04T01:28:05.944Z,77.90
2023-09-04T01:30:40.350Z,77.45
2023-09-04T01:33:13.383Z,78.31
2023-09-04T01:35:45.248Z,78.03
2023-09-04T01:38:14.304Z,77.88
2023-09-04T01:40:43.510Z,77.15
2023-09-04T01:43:11.271Z,78.23
2023-09-04T01:45:39.088Z,79.03
2023-09-04T01:48:08.136Z,79.56
2023-09-04T01:50:35.888Z,79.20
2023-09-04T01:53:06.073Z,78.58
2023-09-04T01:55:33.810Z,78.27
2023-09-04T01:58:01.741Z,78.13
2023-09-04T02:00:29.523Z,78.22
2023-09-04T02:02:57.376Z,78.12
2023-09-04T02:05:25.148Z,77.66
2023-09-04T02:07:52.915Z,77.01
2023-09-04T02:10:23.969Z,77.44
2023-09-04T02:12:51.803Z,77.30
2023-09-04T02:15:19.534Z,77.42
2023-09-04T02:17:47.340Z,76.71
2023-09-04T02:20:15.098Z,77.10
2023-09-04T02:22:42.839Z,76.44
2023-09-04T02:25:10.577Z,77.28
2023-09-04T02:27:39.668Z,78.37
2023-09-04T02:30:08.820Z,78.18
2023-09-04T02:32:36.684Z,77.75
2023-09-04T02:35:04.729Z,78.54
2023-09-04T02:37:33.159Z,78.67
2023-09-04T02:40:00.918Z,78.73
2023-09-04T02:42:30.020Z,78.80
2023-09-04T02:44:59.266Z,78.68
2023-09-04T02:47:26.977Z,77.88
2023-09-04T02:49:55.400Z,78.88
2023-09-04T02:52:23.141Z,79.09
2023-09-04T02:54:50.907Z,78.19
2023-09-04T02:57:18.647Z,78.90
2023-09-04T02:59:46.365Z,77.34
2023-09-04T03:02:15.533Z,77.98
2023-09-04T03:04:43.320Z,78.93
2023-09-04T03:07:11.064Z,78.80
2023-09-04T03:09:38.771Z,78.50
2023-09-04T03:12:07.226Z,79.13
2023-09-04T03:14:34.962Z,78.83
2023-09-04T03:17:03.056Z,79.05
2023-09-04T03:19:32.196Z,77.42
2023-09-04T03:21:59.909Z,78.92
2023-09-04T03:24:28.122Z,78.14
2023-09-04T03:26:55.924Z,77.74
2023-09-04T03:29:23.686Z,78.50
2023-09-04T03:31:52.135Z,78.65
2023-09-04T03:34:20.283Z,78.10
2023-09-04T03:36:49.569Z,78.33
2023-09-04T03:39:17.934Z,78.28
2023-09-04T03:41:45.686Z,78.43
2023-09-04T03:44:13.390Z,78.44
2023-09-04T03:46:41.146Z,77.51
2023-09-04T03:49:09.241Z,80.43
2023-09-04T03:51:37.362Z,79.30
2023-09-04T03:54:06.894Z,78.88
2023-09-04T03:56:36.091Z,78.20
2023-09-04T03:59:03.823Z,78.87
2023-09-04T04:01:32.923Z,77.32
2023-09-04T04:04:01.133Z,79.16
2023-09-04T04:06:29.483Z,79.50
2023-09-04T04:08:57.238Z,79.61
2023-09-04T04:11:27.521Z,79.09
2023-09-04T04:13:55.276Z,79.14
2023-09-04T04:16:23.075Z,80.00
2023-09-04T04:18:50.924Z,79.55
2023-09-04T04:21:18.674Z,78.92
2023-09-04T04:23:47.457Z,78.56
2023-09-04T04:26:15.367Z,78.89
2023-09-04T04:28:44.488Z,79.04
2023-09-04T04:31:12.605Z,78.15
2023-09-04T04:33:40.376Z,78.98
2023-09-04T04:36:08.118Z,77.88
2023-09-04T04:38:35.826Z,78.96
2023-09-04T04:41:03.568Z,79.08
2023-09-04T04:43:31.567Z,79.03
2023-09-04T04:46:00.859Z,78.13
2023-09-04T04:48:28.671Z,78.16
2023-09-04T04:50:57.119Z,77.61
2023-09-04T04:53:25.122Z,78.23
2023-09-04T04:55:52.906Z,77.62
2023-09-04T04:58:20.683Z,78.10
2023-09-04T05:00:48.431Z,77.37
2023-09-04T05:03:17.618Z,80.56
2023-09-04T05:05:47.035Z,79.27
2023-09-04T05:08:15.343Z,78.39
2023-09-04T05:10:43.100Z,79.22
2023-09-04T05:13:10.990Z,78.27
2023-09-04T05:15:38.862Z,78.60
2023-09-04T05:18:07.151Z,77.35
2023-09-04T05:20:39.987Z,76.69
2023-09-04T05:23:07.736Z,77.32
2023-09-04T05:25:35.442Z,76.37
2023-09-04T05:28:03.783Z,78.08
2023-09-04T05:30:34.271Z,77.49
2023-09-04T05:33:02.074Z,79.05
2023-09-04T05:35:29.884Z,78.30
2023-09-04T05:37:59.526Z,78.01
2023-09-04T05:40:27.422Z,78.02
2023-09-04T05:42:55.253Z,77.32
2023-09-04T05:45:23.047Z,79.19
2023-09-04T05:47:51.009Z,76.54
2023-09-04T05:50:18.990Z,77.56
2023-09-04T05:52:46.744Z,79.20
2023-09-04T05:55:15.884Z,81.01
2023-09-04T05:57:43.614Z,77.50
2023-09-04T06:00:13.021Z,75.13
2023-09-04T06:02:40.817Z,76.60
2023-09-04T06:05:09.153Z,80.08
2023-09-04T06:07:36.987Z,81.72
2023-09-04T06:10:05.525Z,78.33
2023-09-04T06:12:34.657Z,64.46
2023-09-04T06:15:02.426Z,54.95
2023-09-04T06:17:30.189Z,52.76
2023-09-04T06:19:57.984Z,49.90
2023-09-04T06:22:25.810Z,47.03
2023-09-04T06:24:53.579Z,47.19
2023-09-04T06:27:21.376Z,47.11
2023-09-04T06:29:50.512Z,46.87
2023-09-04T06:32:18.291Z,47.11
2023-09-04T06:34:46.009Z,46.48
2023-09-04T06:37:13.780Z,43.59
2023-09-04T06:39:42.606Z,44.31
2023-09-04T06:42:10.929Z,41.22
2023-09-04T06:44:38.759Z,41.38
2023-09-04T06:47:07.939Z,42.08
2023-09-04T06:49:35.652Z,44.53
2023-09-04T06:52:03.611Z,41.39
2023-09-04T06:54:31.387Z,41.42
2023-09-04T06:56:59.490Z,38.89
2023-09-04T06:59:27.644Z,38.41
2023-09-04T07:01:55.484Z,37.77
2023-09-04T07:04:24.712Z,36.20
2023-09-04T07:06:52.490Z,36.45
2023-09-04T07:09:20.273Z,36.89
2023-09-04T07:11:48.085Z,35.37
2023-09-04T07:14:15.849Z,36.19
2023-09-04T07:16:57.716Z,35.93
2023-09-04T07:19:31.476Z,34.62
2023-09-04T07:21:59.215Z,34.64
2023-09-04T07:24:26.955Z,33.97
2023-09-04T07:26:54.756Z,34.19
2023-09-04T07:29:22.996Z,36.05
2023-09-04T07:31:50.818Z,33.66
2023-09-04T07:34:18.903Z,33.95
2023-09-04T07:36:48.013Z,34.87
2023-09-04T07:39:15.783Z,33.73
2023-09-04T07:41:43.503Z,33.31
2023-09-04T07:44:11.307Z,34.17
2023-09-04T07:46:39.063Z,34.03
2023-09-04T07:49:06.765Z,34.88
2023-09-04T07:51:35.970Z,33.28
2023-09-04T07:54:06.162Z,34.08
2023-09-04T07:56:42.036Z,33.81
2023-09-04T07:59:11.400Z,33.71
2023-09-04T08:01:40.212Z,35.12
2023-09-04T08:04:08.194Z,33.31
2023-09-04T08:06:35.971Z,35.22
2023-09-04T08:09:05.420Z,33.17
2023-09-04T08:11:33.407Z,31.43
2023-09-04T08:14:01.141Z,32.38
2023-09-04T08:16:29.128Z,34.91
2023-09-04T08:18:57.041Z,36.36
2023-09-04T08:21:24.902Z,33.99
2023-09-04T08:23:52.721Z,37.98
2023-09-04T08:26:21.975Z,35.13
2023-09-04T08:28:49.727Z,35.00
2023-09-04T08:31:17.551Z,35.33
2023-09-04T08:33:45.473Z,34.62
2023-09-04T08:36:14.284Z,33.97
2023-09-04T08:38:42.782Z,33.63
2023-09-04T08:41:11.676Z,32.38
2023-09-04T08:43:41.423Z,31.11
2023-09-04T08:46:10.028Z,31.97
2023-09-04T08:48:41.614Z,32.75
2023-09-04T08:51:09.816Z,31.26
2023-09-04T08:53:38.315Z,31.37
2023-09-04T08:56:06.584Z,31.75
2023-09-04T08:58:34.892Z,35.94
2023-09-04T09:01:04.804Z,32.78
2023-09-04T09:03:33.333Z,32.10
2023-09-04T09:06:02.363Z,32.18
2023-09-04T09:08:34.844Z,32.21
2023-09-04T09:11:04.578Z,32.61
2023-09-04T09:13:32.533Z,32.88
2023-09-04T09:16:00.310Z,33.24
2023-09-04T09:18:39.991Z,35.14
2023-09-04T09:21:23.333Z,39.92
2023-09-04T09:24:08.356Z,44.77
2023-09-04T09:26:36.136Z,45.35
2023-09-04T09:29:05.381Z,45.67
2023-09-04T09:31:34.151Z,46.80
2023-09-04T09:34:03.544Z,45.93
2023-09-04T09:36:31.426Z,49.08
2023-09-04T09:38:59.171Z,48.18
2023-09-04T09:41:27.920Z,50.23
2023-09-04T09:43:55.686Z,50.85
2023-09-04T09:46:23.485Z,50.01
2023-09-04T09:48:51.406Z,52.90
2023-09-04T09:51:21.184Z,51.19
2023-09-04T09:53:50.172Z,50.81
2023-09-04T09:56:19.878Z,50.89
2023-09-04T09:58:50.295Z,50.21
2023-09-04T10:01:19.528Z,49.49
2023-09-04T10:03:48.619Z,49.84
2023-09-04T10:06:24.996Z,52.03
2023-09-04T10:08:54.044Z,50.72
2023-09-04T10:11:22.727Z,50.84
2023-09-04T10:13:58.556Z,51.83
2023-09-04T10:16:33.667Z,50.35
2023-09-04T10:19:04.771Z,50.13
2023-09-04T10:21:39.840Z,52.56
2023-09-04T10:24:13.956Z,49.65
2023-09-04T10:26:49.286Z,50.27
2023-09-04T10:29:20.418Z,50.49
2023-09-04T10:31:49.955Z,51.77
2023-09-04T10:34:17.822Z,51.20
2023-09-04T10:36:48.550Z,52.85
2023-09-04T10:39:16.587Z,50.97
2023-09-04T10:41:45.043Z,51.06
2023-09-04T10:44:14.042Z,50.76
2023-09-04T10:46:56.868Z,49.96
2023-09-04T10:49:32.922Z,49.93
2023-09-04T10:52:02.084Z,48.86
2023-09-04T10:54:29.875Z,49.91
2023-09-04T10:56:59.301Z,48.03
2023-09-04T10:59:28.108Z,51.17
2023-09-04T11:01:56.502Z,51.02
2023-09-04T11:04:48.018Z,52.19
2023-09-04T11:07:36.389Z,50.22
2023-09-04T11:10:26.577Z,50.61
2023-09-04T11:12:55.112Z,51.49
2023-09-04T11:15:23.596Z,49.99
2023-09-04T11:17:52.749Z,49.67
2023-09-04T11:20:26.419Z,51.57
2023-09-04T11:22:57.283Z,52.90
2023-09-04T11:25:25.865Z,51.63
2023-09-04T11:27:53.731Z,54.68
2023-09-04T11:30:21.944Z,52.85
2023-09-04T11:32:49.932Z,53.75
2023-09-04T11:35:17.874Z,53.77
2023-09-04T11:37:45.704Z,53.76
2023-09-04T11:40:14.827Z,52.72
2023-09-04T11:42:42.538Z,52.99
2023-09-04T11:45:11.169Z,52.88
2023-09-04T11:47:41.581Z,50.52
2023-09-04T11:50:16.363Z,50.05
2023-09-04T11:52:44.545Z,49.79
2023-09-04T11:55:14.322Z,49.47
2023-09-04T11:57:43.507Z,48.15
2023-09-04T12:00:12.653Z,47.97
2023-09-04T12:02:43.691Z,48.33
2023-09-04T12:05:12.032Z,48.35
2023-09-04T12:07:39.833Z,52.04
2023-09-04T12:10:09.281Z,50.67
2023-09-04T12:12:39.594Z,51.37
2023-09-04T12:15:08.052Z,52.32
2023-09-04T12:17:35.814Z,51.43
2023-09-04T12:20:05.001Z,51.29
2023-09-04T12:22:32.956Z,51.03
2023-09-04T12:25:01.672Z,50.13
2023-09-04T12:27:30.663Z,52.14
2023-09-04T12:29:59.930Z,53.98
2023-09-04T12:32:27.786Z,53.52
2023-09-04T12:35:01.575Z,50.09
2023-09-04T12:37:31.618Z,49.25
2023-09-04T12:39:59.456Z,48.55
2023-09-04T12:42:27.270Z,51.52
2023-09-04T12:44:55.863Z,50.62
2023-09-04T12:47:25.162Z,47.50
2023-09-04T12:49:53.047Z,48.94
2023-09-04T12:52:20.768Z,53.43
2023-09-04T12:54:50.142Z,52.58
2023-09-04T12:57:17.941Z,52.22
2023-09-04T12:59:45.704Z,50.81
2023-09-04T13:02:13.465Z,51.17
2023-09-04T13:04:42.591Z,53.43
2023-09-04T13:07:10.317Z,52.70
2023-09-04T13:09:39.250Z,51.71
2023-09-04T13:12:09.010Z,49.73
2023-09-04T13:14:37.494Z,50.44
2023-09-04T13:17:05.663Z,50.29
2023-09-04T13:19:33.812Z,48.87
2023-09-04T13:22:04.127Z,48.92
2023-09-04T13:24:32.370Z,50.57
2023-09-04T13:27:00.129Z,50.48
2023-09-04T13:29:27.964Z,50.32
2023-09-04T13:31:55.755Z,49.10
2023-09-04T13:34:23.466Z,47.03
2023-09-04T13:36:51.234Z,48.80
2023-09-04T13:39:20.391Z,50.84
2023-09-04T13:41:48.124Z,50.71
2023-09-04T13:44:15.901Z,50.30
2023-09-04T13:46:43.708Z,49.89
2023-09-04T13:49:11.486Z,50.43
2023-09-04T13:51:39.201Z,49.01
2023-09-04T13:54:11.237Z,50.01
2023-09-04T13:56:40.364Z,49.24
2023-09-04T13:59:08.946Z,49.79
2023-09-04T14:01:37.078Z,51.00
2023-09-04T14:04:05.718Z,50.46
2023-09-04T14:06:33.468Z,50.91
2023-09-04T14:09:01.247Z,49.77
2023-09-04T14:11:29.016Z,50.73
2023-09-04T14:13:58.606Z,51.88
2023-09-04T14:16:26.404Z,51.70
2023-09-04T14:19:03.021Z,51.90
2023-09-04T14:21:33.283Z,51.31
2023-09-04T14:24:01.122Z,48.84
2023-09-04T14:26:28.938Z,50.85
2023-09-04T14:28:58.045Z,52.27
2023-09-04T14:31:26.055Z,49.66
2023-09-04T14:33:53.886Z,49.79
2023-09-04T14:36:21.655Z,51.42
2023-09-04T14:38:49.902Z,51.86
2023-09-04T14:41:20.202Z,50.75
2023-09-04T14:43:48.062Z,50.05
2023-09-04T14:46:20.616Z,50.62
2023-09-04T14:48:49.302Z,51.39
2023-09-04T14:51:17.059Z,52.38
2023-09-04T14:53:45.108Z,50.86
2023-09-04T14:56:13.070Z,49.65
2023-09-04T14:58:40.820Z,49.75
2023-09-04T15:01:15.580Z,49.47
2023-09-04T15:03:45.875Z,48.59
2023-09-04T15:06:14.423Z,49.83
2023-09-04T15:08:42.528Z,48.66
2023-09-04T15:11:13.981Z,48.21
2023-09-04T15:13:43.081Z,49.81
2023-09-04T15:16:11.445Z,51.07
2023-09-04T15:18:39.510Z,51.89
2023-09-04T15:21:08.981Z,50.22
2023-09-04T15:23:36.862Z,49.39
2023-09-04T15:26:04.735Z,49.11
2023-09-04T15:28:32.515Z,49.25
2023-09-04T15:31:00.314Z,48.17
2023-09-04T15:33:29.555Z,49.23
2023-09-04T15:35:59.192Z,49.73
2023-09-04T15:38:28.338Z,50.85
2023-09-04T15:40:57.011Z,50.71
2023-09-04T15:43:25.089Z,51.45
2023-09-04T15:45:53.570Z,49.63
2023-09-04T15:48:21.764Z,49.11
2023-09-04T15:50:50.045Z,50.33
2023-09-04T15:53:20.996Z,49.04
2023-09-04T15:55:55.871Z,51.32
2023-09-04T15:58:24.889Z,51.29
2023-09-04T16:00:53.274Z,50.00
2023-09-04T16:03:21.343Z,49.49
2023-09-04T16:05:49.772Z,50.06
2023-09-04T16:08:17.780Z,49.10
2023-09-04T16:10:45.644Z,50.94
2023-09-04T16:13:17.502Z,50.34
2023-09-04T16:15:45.354Z,51.08
2023-09-04T16:18:13.202Z,51.34
2023-09-04T16:20:42.168Z,51.61
2023-09-04T16:23:11.991Z,50.74
2023-09-04T16:25:39.847Z,51.47
2023-09-04T16:28:08.242Z,51.57
2023-09-04T16:30:37.829Z,51.10
2023-09-04T16:33:12.600Z,52.05
2023-09-04T16:35:43.572Z,51.24
2023-09-04T16:38:11.400Z,50.89
2023-09-04T16:40:41.724Z,51.56
2023-09-04T16:43:09.530Z,51.17
2023-09-04T16:45:39.274Z,50.86
2023-09-04T16:48:08.611Z,51.34
2023-09-04T16:50:36.412Z,50.38
2023-09-04T16:53:05.048Z,51.16
2023-09-04T16:55:33.929Z,51.61
2023-09-04T16:58:01.810Z,52.11
2023-09-04T17:00:29.642Z,52.89
2023-09-04T17:02:58.956Z,52.82
2023-09-04T17:05:26.811Z,52.39
2023-09-04T17:07:54.542Z,51.92
2023-09-04T17:10:22.448Z,52.00
2023-09-04T17:12:50.188Z,52.49
2023-09-04T17:15:18.082Z,52.14
2023-09-04T17:17:46.013Z,52.66
2023-09-04T17:20:15.474Z,52.92
2023-09-04T17:22:43.197Z,54.46
2023-09-04T17:25:11.090Z,54.70
2023-09-04T17:27:38.829Z,55.39
2023-09-04T17:30:09.216Z,55.93
2023-09-04T17:32:38.592Z,55.92
2023-09-04T17:35:07.611Z,58.37
2023-09-04T17:37:36.716Z,59.31
2023-09-04T17:40:04.872Z,58.99
2023-09-04T17:42:32.581Z,59.40
2023-09-04T17:45:00.403Z,59.70
2023-09-04T17:47:28.176Z,60.42
2023-09-04T17:49:55.973Z,62.83
2023-09-04T17:52:23.709Z,63.68
2023-09-04T17:54:52.850Z,63.75
2023-09-04T17:57:20.683Z,63.87
2023-09-04T17:59:48.425Z,64.16
2023-09-04T18:02:16.186Z,63.92
2023-09-04T18:04:43.927Z,66.21
2023-09-04T18:07:11.680Z,65.74
2023-09-04T18:09:40.538Z,66.07
2023-09-04T18:12:10.120Z,65.80
2023-09-04T18:14:37.832Z,66.91
2023-09-04T18:17:05.858Z,67.16
2023-09-04T18:19:33.710Z,68.32
2023-09-04T18:22:02.267Z,71.23
2023-09-04T18:24:30.890Z,70.14
2023-09-04T18:27:02.120Z,70.45
2023-09-04T18:29:31.253Z,71.66
2023-09-04T18:31:58.977Z,71.14
2023-09-04T18:34:26.743Z,70.67
2023-09-04T18:36:54.464Z,68.94
2023-09-04T18:39:22.314Z,70.15
2023-09-04T18:41:50.624Z,68.61
2023-09-04T18:44:18.406Z,68.94
2023-09-04T18:46:47.660Z,67.34
2023-09-04T18:49:15.440Z,67.49
2023-09-04T18:51:43.357Z,69.14
2023-09-04T18:54:11.362Z,67.78
2023-09-04T18:56:39.061Z,68.21
2023-09-04T18:59:06.877Z,68.87
2023-09-04T19:01:34.698Z,68.60
2023-09-04T19:04:03.858Z,68.92
2023-09-04T19:06:31.534Z,68.41
2023-09-04T19:08:59.316Z,68.44
2023-09-04T19:11:27.091Z,69.11
2023-09-04T19:13:54.833Z,69.61
2023-09-04T19:16:24.162Z,69.98
2023-09-04T19:18:54.085Z,70.31
2023-09-04T19:21:23.231Z,71.57
2023-09-04T19:23:51.086Z,71.26
2023-09-04T19:26:18.786Z,70.86
2023-09-04T19:28:51.066Z,70.98
2023-09-04T19:31:20.428Z,72.04
2023-09-04T19:33:49.334Z,71.89
2023-09-04T19:36:17.098Z,73.34
2023-09-04T19:38:46.208Z,73.37
2023-09-04T19:41:13.982Z,73.81
2023-09-04T19:43:42.014Z,73.50
2023-09-04T19:46:10.233Z,73.87
2023-09-04T19:48:38.095Z,73.98
2023-09-04T19:51:05.840Z,74.25
2023-09-04T19:53:33.598Z,74.38
2023-09-04T19:56:02.917Z,73.83
2023-09-04T19:58:31.148Z,73.60
2023-09-04T20:00:59.717Z,73.60
2023-09-04T20:03:27.693Z,73.84
2023-09-04T20:05:55.967Z,73.76
2023-09-04T20:08:24.011Z,74.37
2023-09-04T20:10:51.891Z,73.54
2023-09-04T20:13:21.059Z,74.09
2023-09-04T20:15:49.146Z,73.13
2023-09-04T20:18:16.865Z,72.98
2023-09-04T20:20:44.659Z,73.83
2023-09-04T20:23:12.381Z,74.17
2023-09-04T20:25:40.093Z,73.27
2023-09-04T20:28:07.981Z,72.37
2023-09-04T20:30:37.205Z,71.35
2023-09-04T20:33:05.843Z,72.67
2023-09-04T20:35:34.787Z,72.58
2023-09-04T20:38:02.549Z,73.79
2023-09-04T20:40:30.350Z,74.07
2023-09-04T20:42:58.167Z,76.52
2023-09-04T20:45:26.104Z,77.01
2023-09-04T20:47:55.285Z,75.70
2023-09-04T20:50:23.164Z,75.06
2023-09-04T20:52:50.904Z,74.75
2023-09-04T20:55:18.842Z,74.67
2023-09-04T20:57:46.598Z,76.40
2023-09-04T21:00:14.946Z,76.61
2023-09-04T21:02:44.552Z,77.02
2023-09-04T21:05:13.683Z,76.34
2023-09-04T21:07:40.290Z,76.36
2023-09-04T21:10:08.438Z,74.82
2023-09-04T21:12:53.486Z,75.75
2023-09-04T21:15:38.834Z,74.99
2023-09-04T21:18:24.785Z,76.15
2023-09-04T21:21:11.402Z,76.55
2023-09-04T21:23:56.972Z,76.62
2023-09-04T21:26:42.328Z,77.04
2023-09-04T21:29:27.865Z,75.99
2023-09-04T21:32:13.189Z,75.81
2023-09-04T21:34:58.754Z,75.80
2023-09-04T21:37:45.744Z,76.06
2023-09-04T21:40:31.158Z,76.39
2023-09-04T21:43:16.711Z,77.86
2023-09-04T21:46:04.053Z,78.01
2023-09-04T21:48:51.337Z,76.27
2023-09-04T21:51:36.827Z,76.84
2023-09-04T21:54:23.806Z,77.26
2023-09-04T21:57:09.057Z,77.44
2023-09-04T21:59:54.602Z,76.87
2023-09-04T22:02:40.216Z,76.00
2023-09-04T22:05:25.942Z,75.54
2023-09-04T22:08:11.433Z,75.10
2023-09-04T22:10:58.102Z,74.89
2023-09-04T22:13:43.538Z,74.74
2023-09-04T22:16:29.083Z,75.79
2023-09-04T22:19:14.775Z,74.14
2023-09-04T22:21:59.974Z,75.01
2023-09-04T22:24:45.288Z,74.69
2023-09-04T22:27:32.130Z,74.57
2023-09-04T22:30:17.506Z,74.48
2023-09-04T22:33:02.950Z,73.73
2023-09-04T22:35:48.078Z,76.56
2023-09-04T22:38:33.369Z,78.23
2023-09-04T22:41:22.697Z,76.21
2023-09-04T22:44:09.562Z,74.15
2023-09-04T22:46:55.005Z,74.64
2023-09-04T22:49:40.216Z,75.01
2023-09-04T22:52:27.477Z,76.61
2023-09-04T22:55:12.745Z,78.53
2023-09-04T22:57:58.177Z,79.18
2023-09-04T23:00:45.014Z,79.07
2023-09-04T23:03:32.217Z,76.58
2023-09-04T23:06:17.661Z,75.23
2023-09-04T23:09:03.079Z,75.06
2023-09-04T23:11:48.404Z,77.10
2023-09-04T23:14:33.800Z,75.82
2023-09-04T23:17:20.388Z,75.54
2023-09-04T23:20:05.942Z,78.44
2023-09-04T23:22:33.654Z,78.99
2023-09-04T23:25:01.409Z,77.02
2023-09-04T23:27:30.154Z,78.75
2023-09-04T23:29:58.380Z,77.32
2023-09-04T23:32:42.322Z,75.60
2023-09-04T23:35:28.503Z,75.57
2023-09-04T23:38:07.689Z,74.58
2023-09-04T23:40:53.236Z,74.49
2023-09-04T23:43:38.599Z,73.98
2023-09-04T23:46:06.398Z,74.47
2023-09-04T23:48:35.573Z,76.40
2023-09-04T23:51:03.298Z,79.36
2023-09-04T23:53:31.035Z,78.50
2023-09-04T23:55:58.938Z,77.25
2023-09-04T23:58:26.660Z,77.33
